Weather History for Greeley, CO

Change the Weather History Date:

Wednesday, September 12, 2012

  Actual Average Record
Temperature  
Mean Temperature 54 °F -  
Max Temperature 60 °F 77 °F 93 °F (1993)
Min Temperature 48 °F 46 °F 32 °F (1989)
Degree Days  
Heating Degree Days 11    
Growing Degree Days 4 (Base 50)    
Moisture  
Dew Point 48 °F    
Average Humidity 84    
Maximum Humidity 94    
Minimum Humidity 77    
Precipitation  
Precipitation 0.11 in - - ()
Sea Level Pressure  
Sea Level Pressure 30.28 in    
Wind  
Wind Speed 7 mph (ESE)    
Max Wind Speed 13 mph    
Max Gust Speed -    
Visibility 9 miles    
Events      
Averages and records for this station are not official NWS values.
T = Trace of Precipitation, MM = Missing Value Source: NWS Daily Summary

Daily Weather History Graph

Daily Weather History Graph

Search for Another Location

Airport:

Trip Planner

Search our weather history database for the weather conditions in past years. The results will help you decide how hot, cold, wet, or windy it might be!

Date:

Astronomy

Sep. 12, 2012 Rise Set
Actual Time 6:36 AM MDT 7:11 PM MDT
Civil Twilight 6:09 AM MDT 7:38 PM MDT
Nautical Twilight 5:37 AM MDT 8:11 PM MDT
Astronomical Twilight 5:03 AM MDT 8:44 PM MDT
Moon 2:55 AM MDT (9/12) 5:01 PM MDT (9/12)
Length of Visible Light 13h 29m
Length of Day
12h 34m
Waning Crescent, 13% of the Moon is Illuminated
Sep 12
Waning Crescent
Sep 15
New
Sep 22
First Quarter
Sep 29
Full
Oct 8
Last Quarter

Hourly Weather History & Observations

Time (MDT) Temp. Dew Point Humidity Pressure Visibility Wind Dir Wind Speed Gust Speed Precip Events Conditions
12:15 AM 60.8 °F 53.6 °F 77% 30.08 in 10.0 mi NNW 6.9 mph - N/A   Overcast
12:35 AM 60.8 °F 53.6 °F 77% 30.09 in 10.0 mi East 8.1 mph - N/A   Overcast
12:55 AM 60.8 °F 53.6 °F 77% 30.09 in 10.0 mi East 5.8 mph - N/A   Overcast
1:15 AM 60.8 °F 53.6 °F 77% 30.10 in 10.0 mi SE 6.9 mph - N/A   Overcast
1:35 AM 59.0 °F 53.6 °F 82% 30.11 in 10.0 mi ESE 9.2 mph - N/A   Overcast
1:55 AM 59.0 °F 53.6 °F 82% 30.11 in 10.0 mi ESE 6.9 mph - N/A   Overcast
2:15 AM 59.0 °F 53.6 °F 82% 30.12 in 10.0 mi ESE 3.5 mph - N/A   Overcast
2:35 AM 59.0 °F 53.6 °F 82% 30.13 in 8.0 mi East 9.2 mph - N/A   Overcast
2:55 AM 57.2 °F 53.6 °F 88% 30.13 in 5.0 mi SE 4.6 mph - N/A   Mostly Cloudy
3:15 AM 55.4 °F 53.6 °F 94% 30.14 in 7.0 mi SE 4.6 mph - 0.04 in   Overcast
3:35 AM 53.6 °F 51.8 °F 94% 30.15 in 10.0 mi ESE 10.4 mph - 0.06 in   Overcast
3:55 AM 55.4 °F 53.6 °F 94% 30.15 in 9.0 mi ESE 6.9 mph - 0.07 in   Overcast
4:15 AM 53.6 °F 51.8 °F 94% 30.16 in 10.0 mi ESE 8.1 mph - N/A   Overcast
4:35 AM 53.6 °F 51.8 °F 94% 30.16 in 10.0 mi ESE 6.9 mph - N/A   Overcast
4:55 AM 53.6 °F 51.8 °F 94% 30.17 in 9.0 mi ESE 3.5 mph - N/A   Overcast
5:15 AM 53.6 °F 51.8 °F 94% 30.18 in 10.0 mi SE 4.6 mph - N/A   Overcast
5:35 AM 53.6 °F 51.8 °F 94% 30.19 in 10.0 mi SE 6.9 mph - N/A   Overcast
5:55 AM 53.6 °F 51.8 °F 94% 30.19 in 9.0 mi SE 6.9 mph - 0.01 in   Overcast
6:15 AM 51.8 °F 48.2 °F 88% 30.20 in 10.0 mi SE 9.2 mph - N/A   Overcast
6:35 AM 51.8 °F 50.0 °F 94% 30.22 in 10.0 mi ESE 9.2 mph - N/A   Overcast
6:55 AM 50.0 °F 46.4 °F 87% 30.23 in 10.0 mi ESE 10.4 mph - N/A   Overcast
7:15 AM 48.2 °F 46.4 °F 93% 30.24 in 10.0 mi ESE 9.2 mph - N/A   Overcast
7:35 AM 48.2 °F 46.4 °F 93% 30.24 in 10.0 mi East 11.5 mph - N/A   Overcast
7:55 AM 48.2 °F 46.4 °F 93% 30.25 in 10.0 mi East 9.2 mph - N/A   Overcast
8:15 AM 48.2 °F 44.6 °F 87% 30.26 in 10.0 mi East 8.1 mph - N/A   Overcast
8:35 AM 48.2 °F 44.6 °F 87% 30.28 in 10.0 mi Calm Calm - N/A   Overcast
8:55 AM 48.2 °F 44.6 °F 87% 30.29 in 10.0 mi SE 3.5 mph - 0.01 in   Overcast
9:15 AM 48.2 °F 44.6 °F 87% 30.30 in 10.0 mi Calm Calm - N/A   Overcast
9:35 AM 48.2 °F 44.6 °F 87% 30.30 in 5.0 mi East 4.6 mph - 0.01 in   Overcast
10:15 AM 48.2 °F 44.6 °F 87% 30.33 in 8.0 mi ENE 9.2 mph - N/A   Overcast
10:35 AM 48.2 °F 44.6 °F 87% 30.33 in 8.0 mi East 5.8 mph - N/A   Overcast
10:55 AM 48.2 °F 46.4 °F 93% 30.33 in 7.0 mi East 4.6 mph - N/A   Overcast
11:35 AM 50.0 °F 46.4 °F 87% 30.33 in 9.0 mi ESE 3.5 mph - N/A   Overcast
11:55 AM 50.0 °F 46.4 °F 87% 30.33 in 7.0 mi ESE 3.5 mph - 0.01 in   Overcast
12:15 PM 50.0 °F 48.2 °F 94% 30.33 in 5.0 mi ESE 4.6 mph - N/A   Overcast
12:35 PM 51.8 °F 46.4 °F 82% 30.33 in 9.0 mi ESE 5.8 mph - N/A   Overcast
12:55 PM 51.8 °F 46.4 °F 82% 30.33 in 10.0 mi ESE 4.6 mph - N/A   Overcast
1:15 PM 53.6 °F 48.2 °F 82% 30.33 in 10.0 mi ESE 4.6 mph - N/A   Overcast
1:35 PM 53.6 °F 46.4 °F 77% 30.33 in 10.0 mi SSE 4.6 mph - N/A   Overcast
1:55 PM 53.6 °F 48.2 °F 82% 30.32 in 10.0 mi SE 3.5 mph - N/A   Overcast
2:35 PM 53.6 °F 48.2 °F 82% 30.31 in 10.0 mi SE 3.5 mph - N/A   Overcast
2:55 PM 53.6 °F 48.2 °F 82% 30.31 in 10.0 mi SE 4.6 mph - N/A   Overcast
3:15 PM 55.4 °F 48.2 °F 77% 30.31 in 10.0 mi SE 4.6 mph - N/A   Overcast
3:55 PM 55.4 °F 48.2 °F 77% 30.31 in 7.0 mi SSE 3.5 mph - N/A   Overcast
4:15 PM 55.4 °F 48.2 °F 77% 30.31 in 10.0 mi SSE 4.6 mph - N/A   Overcast
4:35 PM 55.4 °F 48.2 °F 77% 30.30 in 10.0 mi SE 9.2 mph - N/A   Overcast
4:55 PM 55.4 °F 48.2 °F 77% 30.31 in 10.0 mi ESE 8.1 mph - N/A   Overcast
5:15 PM 55.4 °F 48.2 °F 77% 30.31 in 10.0 mi ESE 9.2 mph - N/A   Overcast
5:35 PM 55.4 °F 48.2 °F 77% 30.31 in 10.0 mi ESE 10.4 mph - N/A   Overcast
5:55 PM 53.6 °F 48.2 °F 82% 30.31 in 10.0 mi ESE 10.4 mph - N/A   Overcast
6:55 PM 53.6 °F 46.4 °F 77% 30.34 in 10.0 mi ESE 8.1 mph - N/A   Overcast
7:15 PM 53.6 °F 46.4 °F 77% 30.34 in 10.0 mi ESE 11.5 mph - N/A   Overcast
7:35 PM 53.6 °F 46.4 °F 77% 30.36 in 10.0 mi East 10.4 mph - N/A   Overcast
7:55 PM 51.8 °F 46.4 °F 82% 30.36 in 10.0 mi ESE 11.5 mph - N/A   Overcast
8:15 PM 51.8 °F 46.4 °F 82% 30.37 in 10.0 mi ESE 10.4 mph - N/A   Overcast
8:35 PM 51.8 °F 46.4 °F 82% 30.38 in 10.0 mi ESE 12.7 mph - N/A   Overcast
8:55 PM 51.8 °F 46.4 °F 82% 30.39 in 10.0 mi ESE 9.2 mph - N/A   Overcast
9:15 PM 51.8 °F 46.4 °F 82% 30.40 in 10.0 mi East 9.2 mph - N/A   Overcast
9:35 PM 51.8 °F 46.4 °F 82% 30.41 in 10.0 mi East 10.4 mph - N/A   Overcast
9:55 PM 51.8 °F 46.4 °F 82% 30.42 in 10.0 mi East 9.2 mph - N/A   Overcast
10:15 PM 51.8 °F 46.4 °F 82% 30.41 in 10.0 mi ESE 8.1 mph - N/A   Overcast
10:35 PM 51.8 °F 46.4 °F 82% 30.42 in 10.0 mi ESE 5.8 mph - N/A   Overcast
10:55 PM 51.8 °F 46.4 °F 82% 30.43 in 10.0 mi SE 4.6 mph - N/A   Overcast
11:15 PM 51.8 °F 46.4 °F 82% 30.43 in 10.0 mi SE 5.8 mph - N/A   Overcast
11:35 PM 51.8 °F 46.4 °F 82% 30.43 in 8.0 mi ESE 5.8 mph - N/A   Overcast
11:55 PM 51.8 °F 46.4 °F 82% 30.43 in 9.0 mi ESE 5.8 mph - N/A   Overcast